METAR AND TAF INFORMATION
METAR FOR LTFE
ADDS - METARS form results

(0057 UTC 23 May 2018)
Data provider http://aviationweather.gov/adds/metars/
 
METAR text: LTFE 230020Z 00000KT CAVOK 18/16 Q1015 NOSIG RMK RWY10 02004KT
Conditions at: LTFE (BODRUM MILAS , TR) observed 0020 UTC 23 May 2018
Temperature: 18.0°C (64°F)
Dewpoint: 16.0°C (61°F) [RH = 88%]
Pressure (altimeter): 29.97 inches Hg (1015.0 mb)
Winds: calm
Visibility: 6 or more miles (10+ km)
Ceiling: ceiling and visibility are OK
Clouds: unknown
Weather: no significant weather observed at this time

Forecast for: LTFE (BODRUM MILAS , TR)
Text: TAF LTFE 222240Z 2300/2324 VRB02KT CAVOK
Forecast period: 0000 to 0800 UTC 23 May 2018
Forecast type: FROM: standard forecast or significant change
Winds: variable direction winds at 2 MPH (2 knots; 1.0 m/s)
Visibility: 6 or more miles (10+ km)
Clouds: not forecast
Weather: NSW  (no significant weather)
Forecast for: LTFE (BODRUM MILAS , TR)
Text: TAF LTFE 222240Z 2300/2324 VRB02KT CAVOK
Forecast period: 0000 to 0800 UTC 23 May 2018
Forecast type: FROM: standard forecast or significant change
Winds: variable direction winds at 2 MPH (2 knots; 1.0 m/s)
Visibility: 6 or more miles (10+ km)
Clouds: not forecast
Weather: NSW  (no significant weather)
Forecast for: LTFE (BODRUM MILAS , TR)
Text: TAF LTFE 222240Z 2300/2324 VRB02KT CAVOK
Forecast period: 0800 to 1500 UTC 23 May 2018
Forecast type: BECOMING: Conditions expected to become as follows by 1000 UTC 23 May 2018
Winds: from the SW (230 degrees) at 16 MPH (14 knots; 7.3 m/s)
Visibility: 6 or more miles (10+ km)
Clouds: few clouds at 3500 feet AGL
Weather: NSW  (no significant weather)
Forecast for: LTFE (BODRUM MILAS , TR)
Text: TAF LTFE 222240Z 2300/2324 VRB02KT CAVOK
Forecast period: 0800 to 1500 UTC 23 May 2018
Forecast type: BECOMING: Conditions expected to become as follows by 1000 UTC 23 May 2018
Winds: from the SW (230 degrees) at 16 MPH (14 knots; 7.3 m/s)
Visibility: 6 or more miles (10+ km)
Clouds: few clouds at 3500 feet AGL
Weather: NSW  (no significant weather)
Forecast for: LTFE (BODRUM MILAS , TR)
Text: TAF LTFE 222240Z 2300/2324 VRB02KT CAVOK
Forecast period: 1500 UTC 23 May 2018 to 0000 UTC 24 May 2018
Forecast type: BECOMING: Conditions expected to become as follows by 1800 UTC 23 May 2018
Winds: variable direction winds at 2 MPH (2 knots; 1.0 m/s)
Visibility: 6 or more miles (10+ km)
Weather: NSW  (no significant weather)
Forecast for: LTFE (BODRUM MILAS , TR)
Text: TAF LTFE 222240Z 2300/2324 VRB02KT CAVOK
Forecast period: 1500 UTC 23 May 2018 to 0000 UTC 24 May 2018
Forecast type: BECOMING: Conditions expected to become as follows by 1800 UTC 23 May 2018
Winds: variable direction winds at 2 MPH (2 knots; 1.0 m/s)
Visibility: 6 or more miles (10+ km)
Weather: NSW  (no significant weather)

 AIRPORT MAP

 RUNWAY INFORMATION
Runway 11 Runway length 9842 ft Runway width 148 ft
Runway elevation 9 ft Runway displaced threshold 0 ft Runway heading 107
Runway 29 Runway length 9842 ft Runway width 148 ft
Runway elevation 21 ft Runway displaced threshold 0 ft Runway heading 287

 AIRPORT FREQUENCIES
Type APP Name MENDERES A Frequency 119.5 MHZ
Type APP Name MENDERES A Frequency 119.775 MHZ
Type ATIS Name ATIS Frequency 128.5 MHZ
Type GND Name GND Frequency 121.95 MHZ
Type TWR Name TWR Frequency 120.5 MHZ

 AIRPORT NEAR NAVIGATION AIDS
Type VOR-DME Name Milas Bodrum Frequency 116700 KHZ
Type NDB Name Milas Bodrum Frequency 389 KHZ
Type VOR-DME Name Kiyikislacik Frequency 113900 KHZ



Powered by Virtual Airlines Manager [v2.6.1]